sensor_id;sensor_type;location;lat;lon;timestamp;P1;durP1;ratioP1;P2;durP2;ratioP2
4794;SDS011;2411;47.060;15.064;2024-03-29T00:00:56;0.60;;;0.60;;
4794;SDS011;2411;47.060;15.064;2024-03-29T00:03:22;0.70;;;0.70;;
4794;SDS011;2411;47.060;15.064;2024-03-29T00:05:49;0.50;;;0.50;;
4794;SDS011;2411;47.060;15.064;2024-03-29T00:08:15;0.73;;;0.50;;
4794;SDS011;2411;47.060;15.064;2024-03-29T00:10:41;0.97;;;0.50;;
4794;SDS011;2411;47.060;15.064;2024-03-29T00:13:07;0.67;;;0.67;;
4794;SDS011;2411;47.060;15.064;2024-03-29T00:15:33;0.60;;;0.60;;
4794;SDS011;2411;47.060;15.064;2024-03-29T00:18:00;0.50;;;0.50;;
4794;SDS011;2411;47.060;15.064;2024-03-29T00:20:26;0.93;;;0.67;;
4794;SDS011;2411;47.060;15.064;2024-03-29T00:22:54;0.70;;;0.60;;
4794;SDS011;2411;47.060;15.064;2024-03-29T00:25:20;0.60;;;0.60;;
4794;SDS011;2411;47.060;15.064;2024-03-29T00:27:46;0.60;;;0.60;;
4794;SDS011;2411;47.060;15.064;2024-03-29T00:30:13;0.47;;;0.47;;
4794;SDS011;2411;47.060;15.064;2024-03-29T00:32:39;0.50;;;0.50;;
4794;SDS011;2411;47.060;15.064;2024-03-29T00:35:06;1.10;;;0.60;;
4794;SDS011;2411;47.060;15.064;2024-03-29T00:37:33;0.60;;;0.60;;
4794;SDS011;2411;47.060;15.064;2024-03-29T00:39:59;0.70;;;0.60;;
4794;SDS011;2411;47.060;15.064;2024-03-29T00:42:25;0.50;;;0.50;;
4794;SDS011;2411;47.060;15.064;2024-03-29T00:44:51;0.60;;;0.60;;
4794;SDS011;2411;47.060;15.064;2024-03-29T00:47:17;0.57;;;0.57;;
4794;SDS011;2411;47.060;15.064;2024-03-29T00:49:43;0.87;;;0.50;;
4794;SDS011;2411;47.060;15.064;2024-03-29T00:52:09;0.50;;;0.50;;
4794;SDS011;2411;47.060;15.064;2024-03-29T00:54:35;1.03;;;0.70;;
4794;SDS011;2411;47.060;15.064;2024-03-29T00:57:01;0.60;;;0.60;;
4794;SDS011;2411;47.060;15.064;2024-03-29T00:59:27;0.77;;;0.70;;
4794;SDS011;2411;47.060;15.064;2024-03-29T01:01:53;0.60;;;0.60;;
4794;SDS011;2411;47.060;15.064;2024-03-29T01:04:19;1.13;;;0.70;;
4794;SDS011;2411;47.060;15.064;2024-03-29T01:06:45;0.70;;;0.50;;
4794;SDS011;2411;47.060;15.064;2024-03-29T01:09:11;0.50;;;0.50;;
4794;SDS011;2411;47.060;15.064;2024-03-29T01:11:38;0.60;;;0.60;;
4794;SDS011;2411;47.060;15.064;2024-03-29T01:14:07;0.80;;;0.70;;
4794;SDS011;2411;47.060;15.064;2024-03-29T01:16:33;1.70;;;0.60;;
4794;SDS011;2411;47.060;15.064;2024-03-29T01:18:59;0.47;;;0.47;;
4794;SDS011;2411;47.060;15.064;2024-03-29T01:21:25;0.50;;;0.50;;
4794;SDS011;2411;47.060;15.064;2024-03-29T01:23:52;0.60;;;0.50;;
4794;SDS011;2411;47.060;15.064;2024-03-29T01:26:18;0.50;;;0.50;;
4794;SDS011;2411;47.060;15.064;2024-03-29T01:28:44;0.67;;;0.67;;
4794;SDS011;2411;47.060;15.064;2024-03-29T01:31:10;0.50;;;0.50;;
4794;SDS011;2411;47.060;15.064;2024-03-29T01:33:37;0.50;;;0.50;;
4794;SDS011;2411;47.060;15.064;2024-03-29T01:36:06;1.23;;;0.80;;
4794;SDS011;2411;47.060;15.064;2024-03-29T01:38:33;0.70;;;0.53;;
4794;SDS011;2411;47.060;15.064;2024-03-29T01:40:59;0.40;;;0.40;;
4794;SDS011;2411;47.060;15.064;2024-03-29T01:43:25;0.50;;;0.50;;
4794;SDS011;2411;47.060;15.064;2024-03-29T01:45:54;0.63;;;0.50;;
4794;SDS011;2411;47.060;15.064;2024-03-29T01:48:24;0.43;;;0.43;;
4794;SDS011;2411;47.060;15.064;2024-03-29T01:50:55;0.50;;;0.50;;
4794;SDS011;2411;47.060;15.064;2024-03-29T01:53:23;0.50;;;0.50;;
4794;SDS011;2411;47.060;15.064;2024-03-29T01:55:50;0.40;;;0.40;;
4794;SDS011;2411;47.060;15.064;2024-03-29T01:58:16;0.50;;;0.50;;
4794;SDS011;2411;47.060;15.064;2024-03-29T02:00:48;0.53;;;0.53;;
4794;SDS011;2411;47.060;15.064;2024-03-29T02:03:18;0.70;;;0.70;;
4794;SDS011;2411;47.060;15.064;2024-03-29T02:05:45;0.50;;;0.50;;
4794;SDS011;2411;47.060;15.064;2024-03-29T02:08:13;0.90;;;0.70;;
4794;SDS011;2411;47.060;15.064;2024-03-29T02:10:39;0.53;;;0.53;;
4794;SDS011;2411;47.060;15.064;2024-03-29T02:13:05;0.50;;;0.50;;
4794;SDS011;2411;47.060;15.064;2024-03-29T02:15:31;0.63;;;0.57;;
4794;SDS011;2411;47.060;15.064;2024-03-29T02:17:57;0.50;;;0.50;;
4794;SDS011;2411;47.060;15.064;2024-03-29T02:20:24;0.50;;;0.50;;
4794;SDS011;2411;47.060;15.064;2024-03-29T02:22:54;0.50;;;0.50;;
4794;SDS011;2411;47.060;15.064;2024-03-29T02:25:25;0.73;;;0.40;;
4794;SDS011;2411;47.060;15.064;2024-03-29T02:27:51;0.50;;;0.50;;
4794;SDS011;2411;47.060;15.064;2024-03-29T02:30:18;0.50;;;0.50;;
4794;SDS011;2411;47.060;15.064;2024-03-29T02:32:45;0.50;;;0.50;;
4794;SDS011;2411;47.060;15.064;2024-03-29T02:35:11;1.40;;;0.77;;
4794;SDS011;2411;47.060;15.064;2024-03-29T02:37:37;3.17;;;0.50;;
4794;SDS011;2411;47.060;15.064;2024-03-29T02:40:04;1.67;;;0.60;;
4794;SDS011;2411;47.060;15.064;2024-03-29T02:42:31;1.60;;;0.50;;
4794;SDS011;2411;47.060;15.064;2024-03-29T02:44:58;0.70;;;0.50;;
4794;SDS011;2411;47.060;15.064;2024-03-29T02:47:24;0.57;;;0.43;;
4794;SDS011;2411;47.060;15.064;2024-03-29T02:49:50;1.43;;;0.50;;
4794;SDS011;2411;47.060;15.064;2024-03-29T02:52:16;0.43;;;0.43;;
4794;SDS011;2411;47.060;15.064;2024-03-29T02:54:42;0.90;;;0.60;;
4794;SDS011;2411;47.060;15.064;2024-03-29T02:57:08;0.70;;;0.70;;
4794;SDS011;2411;47.060;15.064;2024-03-29T02:59:34;0.67;;;0.67;;
4794;SDS011;2411;47.060;15.064;2024-03-29T03:02:00;0.50;;;0.50;;
4794;SDS011;2411;47.060;15.064;2024-03-29T03:04:26;1.53;;;0.60;;
4794;SDS011;2411;47.060;15.064;2024-03-29T03:06:52;0.50;;;0.50;;
4794;SDS011;2411;47.060;15.064;2024-03-29T03:09:18;0.50;;;0.50;;
4794;SDS011;2411;47.060;15.064;2024-03-29T03:12:02;1.60;;;0.50;;
4794;SDS011;2411;47.060;15.064;2024-03-29T03:14:28;0.50;;;0.50;;
4794;SDS011;2411;47.060;15.064;2024-03-29T03:16:54;0.50;;;0.50;;
4794;SDS011;2411;47.060;15.064;2024-03-29T03:19:21;0.40;;;0.40;;
4794;SDS011;2411;47.060;15.064;2024-03-29T03:21:47;0.50;;;0.50;;
4794;SDS011;2411;47.060;15.064;2024-03-29T03:24:13;0.50;;;0.50;;
4794;SDS011;2411;47.060;15.064;2024-03-29T03:26:39;0.73;;;0.40;;
4794;SDS011;2411;47.060;15.064;2024-03-29T03:29:05;0.40;;;0.40;;
4794;SDS011;2411;47.060;15.064;2024-03-29T03:31:33;18.10;;;1.20;;
4794;SDS011;2411;47.060;15.064;2024-03-29T03:33:59;0.50;;;0.50;;
4794;SDS011;2411;47.060;15.064;2024-03-29T03:36:25;0.80;;;0.80;;
4794;SDS011;2411;47.060;15.064;2024-03-29T03:38:51;2.37;;;0.80;;
4794;SDS011;2411;47.060;15.064;2024-03-29T03:41:17;0.90;;;0.90;;
4794;SDS011;2411;47.060;15.064;2024-03-29T03:43:43;1.20;;;1.20;;
4794;SDS011;2411;47.060;15.064;2024-03-29T03:46:09;1.53;;;1.53;;
4794;SDS011;2411;47.060;15.064;2024-03-29T03:48:35;1.70;;;1.60;;
4794;SDS011;2411;47.060;15.064;2024-03-29T03:51:01;1.23;;;0.90;;
4794;SDS011;2411;47.060;15.064;2024-03-29T03:53:27;0.50;;;0.50;;
4794;SDS011;2411;47.060;15.064;2024-03-29T03:55:53;0.80;;;0.80;;
4794;SDS011;2411;47.060;15.064;2024-03-29T03:58:19;0.50;;;0.50;;
4794;SDS011;2411;47.060;15.064;2024-03-29T04:00:45;0.57;;;0.57;;
4794;SDS011;2411;47.060;15.064;2024-03-29T04:03:11;1.37;;;0.60;;
4794;SDS011;2411;47.060;15.064;2024-03-29T04:05:37;2.93;;;0.70;;
4794;SDS011;2411;47.060;15.064;2024-03-29T04:08:03;0.73;;;0.73;;
4794;SDS011;2411;47.060;15.064;2024-03-29T04:10:30;0.50;;;0.50;;
4794;SDS011;2411;47.060;15.064;2024-03-29T04:12:55;0.50;;;0.50;;
4794;SDS011;2411;47.060;15.064;2024-03-29T04:15:22;0.70;;;0.70;;
4794;SDS011;2411;47.060;15.064;2024-03-29T04:17:48;0.50;;;0.50;;
4794;SDS011;2411;47.060;15.064;2024-03-29T04:20:14;0.80;;;0.80;;
4794;SDS011;2411;47.060;15.064;2024-03-29T04:22:40;1.43;;;0.90;;
4794;SDS011;2411;47.060;15.064;2024-03-29T04:25:06;0.70;;;0.70;;
4794;SDS011;2411;47.060;15.064;2024-03-29T04:27:33;2.10;;;1.00;;
4794;SDS011;2411;47.060;15.064;2024-03-29T04:29:59;0.63;;;0.63;;
4794;SDS011;2411;47.060;15.064;2024-03-29T04:32:25;2.10;;;0.70;;
4794;SDS011;2411;47.060;15.064;2024-03-29T04:34:50;1.00;;;0.90;;
4794;SDS011;2411;47.060;15.064;2024-03-29T04:37:18;0.70;;;0.70;;
4794;SDS011;2411;47.060;15.064;2024-03-29T04:39:44;1.53;;;0.90;;
4794;SDS011;2411;47.060;15.064;2024-03-29T04:42:11;0.70;;;0.70;;
4794;SDS011;2411;47.060;15.064;2024-03-29T04:44:38;1.13;;;0.80;;
4794;SDS011;2411;47.060;15.064;2024-03-29T04:47:04;0.73;;;0.73;;
4794;SDS011;2411;47.060;15.064;2024-03-29T04:49:31;2.40;;;0.87;;
4794;SDS011;2411;47.060;15.064;2024-03-29T04:52:05;0.83;;;0.83;;
4794;SDS011;2411;47.060;15.064;2024-03-29T04:54:32;0.80;;;0.80;;
4794;SDS011;2411;47.060;15.064;2024-03-29T04:56:59;0.73;;;0.73;;
4794;SDS011;2411;47.060;15.064;2024-03-29T04:59:31;0.70;;;0.70;;
4794;SDS011;2411;47.060;15.064;2024-03-29T05:02:00;0.70;;;0.70;;
4794;SDS011;2411;47.060;15.064;2024-03-29T05:04:27;0.70;;;0.70;;
4794;SDS011;2411;47.060;15.064;2024-03-29T05:06:57;1.23;;;0.90;;
4794;SDS011;2411;47.060;15.064;2024-03-29T05:09:24;1.07;;;0.80;;
4794;SDS011;2411;47.060;15.064;2024-03-29T05:11:50;0.83;;;0.60;;
4794;SDS011;2411;47.060;15.064;2024-03-29T05:14:17;0.70;;;0.70;;
4794;SDS011;2411;47.060;15.064;2024-03-29T05:16:45;0.50;;;0.50;;
4794;SDS011;2411;47.060;15.064;2024-03-29T05:19:12;0.80;;;0.80;;
4794;SDS011;2411;47.060;15.064;2024-03-29T05:21:40;1.33;;;0.80;;
4794;SDS011;2411;47.060;15.064;2024-03-29T05:24:06;0.70;;;0.70;;
4794;SDS011;2411;47.060;15.064;2024-03-29T05:26:33;0.90;;;0.90;;
4794;SDS011;2411;47.060;15.064;2024-03-29T05:28:59;0.97;;;0.97;;
4794;SDS011;2411;47.060;15.064;2024-03-29T05:31:25;3.70;;;0.70;;
4794;SDS011;2411;47.060;15.064;2024-03-29T05:33:52;1.13;;;0.80;;
4794;SDS011;2411;47.060;15.064;2024-03-29T05:36:18;0.90;;;0.70;;
4794;SDS011;2411;47.060;15.064;2024-03-29T05:38:45;0.67;;;0.67;;
4794;SDS011;2411;47.060;15.064;2024-03-29T05:41:11;0.70;;;0.70;;
4794;SDS011;2411;47.060;15.064;2024-03-29T05:43:40;0.70;;;0.70;;
4794;SDS011;2411;47.060;15.064;2024-03-29T05:46:06;2.90;;;0.80;;
4794;SDS011;2411;47.060;15.064;2024-03-29T05:48:32;1.63;;;0.73;;
4794;SDS011;2411;47.060;15.064;2024-03-29T05:50:58;1.47;;;0.70;;
4794;SDS011;2411;47.060;15.064;2024-03-29T05:53:24;0.90;;;0.90;;
4794;SDS011;2411;47.060;15.064;2024-03-29T05:55:50;0.57;;;0.57;;
4794;SDS011;2411;47.060;15.064;2024-03-29T05:58:16;0.80;;;0.80;;
4794;SDS011;2411;47.060;15.064;2024-03-29T06:00:44;2.00;;;1.07;;
4794;SDS011;2411;47.060;15.064;2024-03-29T06:03:10;5.67;;;1.50;;
4794;SDS011;2411;47.060;15.064;2024-03-29T06:05:36;2.60;;;1.20;;
4794;SDS011;2411;47.060;15.064;2024-03-29T06:08:02;1.00;;;1.00;;
4794;SDS011;2411;47.060;15.064;2024-03-29T06:10:31;0.90;;;0.90;;
4794;SDS011;2411;47.060;15.064;2024-03-29T06:12:57;3.80;;;1.20;;
4794;SDS011;2411;47.060;15.064;2024-03-29T06:15:32;1.40;;;1.30;;
4794;SDS011;2411;47.060;15.064;2024-03-29T06:18:17;3.00;;;2.80;;
4794;SDS011;2411;47.060;15.064;2024-03-29T06:20:47;2.37;;;2.17;;
4794;SDS011;2411;47.060;15.064;2024-03-29T06:23:14;5.60;;;3.70;;
4794;SDS011;2411;47.060;15.064;2024-03-29T06:25:40;3.87;;;3.43;;
4794;SDS011;2411;47.060;15.064;2024-03-29T06:28:07;5.67;;;3.70;;
4794;SDS011;2411;47.060;15.064;2024-03-29T06:30:33;4.60;;;3.50;;
4794;SDS011;2411;47.060;15.064;2024-03-29T06:32:58;3.50;;;3.20;;
4794;SDS011;2411;47.060;15.064;2024-03-29T06:35:29;4.10;;;3.03;;
4794;SDS011;2411;47.060;15.064;2024-03-29T06:37:56;6.60;;;2.97;;
4794;SDS011;2411;47.060;15.064;2024-03-29T06:40:22;2.90;;;2.60;;
4794;SDS011;2411;47.060;15.064;2024-03-29T06:42:48;2.47;;;2.27;;
4794;SDS011;2411;47.060;15.064;2024-03-29T06:45:14;2.20;;;2.10;;
4794;SDS011;2411;47.060;15.064;2024-03-29T06:47:40;2.30;;;2.10;;
4794;SDS011;2411;47.060;15.064;2024-03-29T06:50:06;2.23;;;2.13;;
4794;SDS011;2411;47.060;15.064;2024-03-29T06:52:33;2.00;;;1.80;;
4794;SDS011;2411;47.060;15.064;2024-03-29T06:54:59;2.10;;;1.93;;
4794;SDS011;2411;47.060;15.064;2024-03-29T06:57:25;2.00;;;1.90;;
4794;SDS011;2411;47.060;15.064;2024-03-29T06:59:54;5.37;;;1.97;;
4794;SDS011;2411;47.060;15.064;2024-03-29T07:02:20;2.07;;;1.90;;
4794;SDS011;2411;47.060;15.064;2024-03-29T07:04:46;2.20;;;1.40;;
4794;SDS011;2411;47.060;15.064;2024-03-29T07:07:12;1.20;;;1.20;;
4794;SDS011;2411;47.060;15.064;2024-03-29T07:09:38;1.20;;;1.10;;
4794;SDS011;2411;47.060;15.064;2024-03-29T07:12:04;1.40;;;1.30;;
4794;SDS011;2411;47.060;15.064;2024-03-29T07:14:30;1.63;;;1.20;;
4794;SDS011;2411;47.060;15.064;2024-03-29T07:16:58;1.07;;;1.07;;
4794;SDS011;2411;47.060;15.064;2024-03-29T07:19:24;0.73;;;0.73;;
4794;SDS011;2411;47.060;15.064;2024-03-29T07:21:50;3.43;;;1.40;;
4794;SDS011;2411;47.060;15.064;2024-03-29T07:24:19;2.60;;;1.40;;
4794;SDS011;2411;47.060;15.064;2024-03-29T07:26:45;1.83;;;1.30;;
4794;SDS011;2411;47.060;15.064;2024-03-29T07:29:11;2.30;;;1.40;;
4794;SDS011;2411;47.060;15.064;2024-03-29T07:31:37;1.27;;;1.17;;
4794;SDS011;2411;47.060;15.064;2024-03-29T07:34:03;1.30;;;1.20;;
4794;SDS011;2411;47.060;15.064;2024-03-29T07:36:29;1.60;;;1.50;;
4794;SDS011;2411;47.060;15.064;2024-03-29T07:39:00;1.53;;;1.43;;
4794;SDS011;2411;47.060;15.064;2024-03-29T07:41:27;3.80;;;1.77;;
4794;SDS011;2411;47.060;15.064;2024-03-29T07:43:54;9.27;;;2.20;;
4794;SDS011;2411;47.060;15.064;2024-03-29T07:46:34;2.10;;;1.70;;
4794;SDS011;2411;47.060;15.064;2024-03-29T07:49:02;2.43;;;1.97;;
4794;SDS011;2411;47.060;15.064;2024-03-29T07:51:28;5.20;;;1.63;;
4794;SDS011;2411;47.060;15.064;2024-03-29T07:53:55;1.40;;;1.30;;
4794;SDS011;2411;47.060;15.064;2024-03-29T07:56:21;3.00;;;2.30;;
4794;SDS011;2411;47.060;15.064;2024-03-29T07:58:54;2.90;;;2.03;;
4794;SDS011;2411;47.060;15.064;2024-03-29T08:01:21;6.23;;;2.60;;
4794;SDS011;2411;47.060;15.064;2024-03-29T08:03:50;5.50;;;2.13;;
4794;SDS011;2411;47.060;15.064;2024-03-29T08:06:18;3.43;;;2.03;;
4794;SDS011;2411;47.060;15.064;2024-03-29T08:08:45;4.73;;;2.40;;
4794;SDS011;2411;47.060;15.064;2024-03-29T08:11:11;3.93;;;2.30;;
4794;SDS011;2411;47.060;15.064;2024-03-29T08:13:38;10.33;;;3.00;;
4794;SDS011;2411;47.060;15.064;2024-03-29T08:16:06;2.50;;;2.30;;
4794;SDS011;2411;47.060;15.064;2024-03-29T08:18:32;5.50;;;5.00;;
4794;SDS011;2411;47.060;15.064;2024-03-29T08:21:02;1.23;;;1.00;;
4794;SDS011;2411;47.060;15.064;2024-03-29T08:23:28;1.30;;;1.20;;
4794;SDS011;2411;47.060;15.064;2024-03-29T08:25:54;1.43;;;0.90;;
4794;SDS011;2411;47.060;15.064;2024-03-29T08:28:21;1.47;;;1.17;;
4794;SDS011;2411;47.060;15.064;2024-03-29T08:31:04;1.50;;;0.93;;
4794;SDS011;2411;47.060;15.064;2024-03-29T08:33:33;2.63;;;1.00;;
4794;SDS011;2411;47.060;15.064;2024-03-29T08:35:59;0.80;;;0.80;;
4794;SDS011;2411;47.060;15.064;2024-03-29T08:38:25;0.77;;;0.77;;
4794;SDS011;2411;47.060;15.064;2024-03-29T08:40:51;0.80;;;0.80;;
4794;SDS011;2411;47.060;15.064;2024-03-29T08:43:17;2.20;;;0.70;;
4794;SDS011;2411;47.060;15.064;2024-03-29T08:45:46;4.03;;;1.00;;
4794;SDS011;2411;47.060;15.064;2024-03-29T08:48:12;2.07;;;0.60;;
4794;SDS011;2411;47.060;15.064;2024-03-29T08:50:38;2.40;;;0.80;;
4794;SDS011;2411;47.060;15.064;2024-03-29T08:53:05;2.50;;;0.80;;
4794;SDS011;2411;47.060;15.064;2024-03-29T08:55:31;0.53;;;0.53;;
4794;SDS011;2411;47.060;15.064;2024-03-29T08:57:59;0.70;;;0.70;;
4794;SDS011;2411;47.060;15.064;2024-03-29T09:00:27;2.40;;;0.70;;
4794;SDS011;2411;47.060;15.064;2024-03-29T09:02:53;1.53;;;0.80;;
4794;SDS011;2411;47.060;15.064;2024-03-29T09:05:19;12.83;;;0.70;;
4794;SDS011;2411;47.060;15.064;2024-03-29T09:07:47;0.90;;;0.90;;
4794;SDS011;2411;47.060;15.064;2024-03-29T09:10:14;0.80;;;0.80;;
4794;SDS011;2411;47.060;15.064;2024-03-29T09:12:40;1.50;;;0.73;;
4794;SDS011;2411;47.060;15.064;2024-03-29T09:15:06;1.40;;;1.00;;
4794;SDS011;2411;47.060;15.064;2024-03-29T09:17:36;1.03;;;0.80;;
4794;SDS011;2411;47.060;15.064;2024-03-29T09:20:02;0.80;;;0.77;;
4794;SDS011;2411;47.060;15.064;2024-03-29T09:22:30;1.20;;;1.00;;
4794;SDS011;2411;47.060;15.064;2024-03-29T09:24:56;2.77;;;1.00;;
4794;SDS011;2411;47.060;15.064;2024-03-29T09:27:22;2.40;;;1.10;;
4794;SDS011;2411;47.060;15.064;2024-03-29T09:29:48;0.80;;;0.80;;
4794;SDS011;2411;47.060;15.064;2024-03-29T09:32:14;1.57;;;1.03;;
4794;SDS011;2411;47.060;15.064;2024-03-29T09:34:43;1.60;;;0.60;;
4794;SDS011;2411;47.060;15.064;2024-03-29T09:37:09;4.37;;;0.90;;
4794;SDS011;2411;47.060;15.064;2024-03-29T09:39:35;0.70;;;0.70;;
4794;SDS011;2411;47.060;15.064;2024-03-29T09:42:06;0.60;;;0.60;;
4794;SDS011;2411;47.060;15.064;2024-03-29T09:44:33;3.97;;;1.37;;
4794;SDS011;2411;47.060;15.064;2024-03-29T09:47:04;1.80;;;0.70;;
4794;SDS011;2411;47.060;15.064;2024-03-29T09:49:32;2.33;;;0.80;;
4794;SDS011;2411;47.060;15.064;2024-03-29T09:51:59;4.30;;;1.20;;
4794;SDS011;2411;47.060;15.064;2024-03-29T09:54:27;4.60;;;1.30;;
4794;SDS011;2411;47.060;15.064;2024-03-29T09:56:55;1.10;;;1.00;;
4794;SDS011;2411;47.060;15.064;2024-03-29T09:59:22;2.73;;;0.80;;
4794;SDS011;2411;47.060;15.064;2024-03-29T10:01:53;4.73;;;1.13;;
4794;SDS011;2411;47.060;15.064;2024-03-29T10:04:24;6.43;;;1.63;;
4794;SDS011;2411;47.060;15.064;2024-03-29T10:06:50;1.13;;;0.80;;
4794;SDS011;2411;47.060;15.064;2024-03-29T10:09:17;1.33;;;0.90;;
4794;SDS011;2411;47.060;15.064;2024-03-29T10:11:44;9.20;;;2.37;;
4794;SDS011;2411;47.060;15.064;2024-03-29T10:14:10;3.47;;;1.03;;
4794;SDS011;2411;47.060;15.064;2024-03-29T10:16:36;2.20;;;0.97;;
4794;SDS011;2411;47.060;15.064;2024-03-29T10:19:03;3.57;;;0.70;;
4794;SDS011;2411;47.060;15.064;2024-03-29T10:21:30;1.47;;;0.80;;
4794;SDS011;2411;47.060;15.064;2024-03-29T10:23:55;3.23;;;1.30;;
4794;SDS011;2411;47.060;15.064;2024-03-29T10:26:21;1.50;;;1.40;;
4794;SDS011;2411;47.060;15.064;2024-03-29T10:28:48;5.30;;;1.63;;
4794;SDS011;2411;47.060;15.064;2024-03-29T10:31:17;3.20;;;1.40;;
4794;SDS011;2411;47.060;15.064;2024-03-29T10:33:44;6.37;;;1.70;;
4794;SDS011;2411;47.060;15.064;2024-03-29T10:36:10;3.73;;;1.47;;
4794;SDS011;2411;47.060;15.064;2024-03-29T10:38:40;5.13;;;1.10;;
4794;SDS011;2411;47.060;15.064;2024-03-29T10:41:06;1.83;;;1.33;;
4794;SDS011;2411;47.060;15.064;2024-03-29T10:43:33;1.13;;;0.90;;
4794;SDS011;2411;47.060;15.064;2024-03-29T10:45:59;3.73;;;1.40;;
4794;SDS011;2411;47.060;15.064;2024-03-29T10:48:26;2.07;;;1.20;;
4794;SDS011;2411;47.060;15.064;2024-03-29T10:50:57;2.67;;;1.37;;
4794;SDS011;2411;47.060;15.064;2024-03-29T10:53:24;1.37;;;0.80;;
4794;SDS011;2411;47.060;15.064;2024-03-29T10:55:58;0.90;;;0.70;;
4794;SDS011;2411;47.060;15.064;2024-03-29T10:58:31;1.37;;;1.17;;
4794;SDS011;2411;47.060;15.064;2024-03-29T11:01:01;1.90;;;0.77;;
4794;SDS011;2411;47.060;15.064;2024-03-29T11:06:03;1.33;;;0.93;;
4794;SDS011;2411;47.060;15.064;2024-03-29T11:08:32;1.10;;;1.00;;
4794;SDS011;2411;47.060;15.064;2024-03-29T11:11:00;2.50;;;0.70;;
4794;SDS011;2411;47.060;15.064;2024-03-29T11:16:13;2.73;;;1.03;;
4794;SDS011;2411;47.060;15.064;2024-03-29T11:18:41;1.27;;;0.67;;
4794;SDS011;2411;47.060;15.064;2024-03-29T11:21:08;6.17;;;1.00;;
4794;SDS011;2411;47.060;15.064;2024-03-29T11:23:36;2.50;;;0.80;;
4794;SDS011;2411;47.060;15.064;2024-03-29T11:26:02;2.10;;;0.90;;
4794;SDS011;2411;47.060;15.064;2024-03-29T11:28:29;2.13;;;0.80;;
4794;SDS011;2411;47.060;15.064;2024-03-29T11:31:06;1.50;;;0.80;;
4794;SDS011;2411;47.060;15.064;2024-03-29T11:33:34;0.80;;;0.60;;
4794;SDS011;2411;47.060;15.064;2024-03-29T11:38:56;2.13;;;0.63;;
4794;SDS011;2411;47.060;15.064;2024-03-29T11:41:24;1.23;;;0.90;;
4794;SDS011;2411;47.060;15.064;2024-03-29T11:43:50;0.80;;;0.60;;
4794;SDS011;2411;47.060;15.064;2024-03-29T11:46:17;1.50;;;0.60;;
4794;SDS011;2411;47.060;15.064;2024-03-29T11:48:44;1.20;;;0.83;;
4794;SDS011;2411;47.060;15.064;2024-03-29T11:51:18;0.70;;;0.60;;
4794;SDS011;2411;47.060;15.064;2024-03-29T11:53:56;0.70;;;0.70;;
4794;SDS011;2411;47.060;15.064;2024-03-29T11:56:22;0.70;;;0.50;;
4794;SDS011;2411;47.060;15.064;2024-03-29T11:58:48;1.40;;;0.80;;
4794;SDS011;2411;47.060;15.064;2024-03-29T12:01:15;1.33;;;1.10;;
4794;SDS011;2411;47.060;15.064;2024-03-29T12:03:42;2.03;;;1.40;;
4794;SDS011;2411;47.060;15.064;2024-03-29T12:06:09;2.27;;;1.33;;
4794;SDS011;2411;47.060;15.064;2024-03-29T12:08:37;3.63;;;1.37;;
4794;SDS011;2411;47.060;15.064;2024-03-29T12:11:04;2.60;;;1.90;;
4794;SDS011;2411;47.060;15.064;2024-03-29T12:13:31;0.73;;;0.73;;
4794;SDS011;2411;47.060;15.064;2024-03-29T12:15:59;2.07;;;0.77;;
4794;SDS011;2411;47.060;15.064;2024-03-29T12:18:27;2.73;;;0.70;;
4794;SDS011;2411;47.060;15.064;2024-03-29T12:20:53;1.00;;;0.70;;
4794;SDS011;2411;47.060;15.064;2024-03-29T12:23:21;1.27;;;0.80;;
4794;SDS011;2411;47.060;15.064;2024-03-29T12:25:48;0.73;;;0.73;;
4794;SDS011;2411;47.060;15.064;2024-03-29T12:28:15;1.00;;;0.60;;
4794;SDS011;2411;47.060;15.064;2024-03-29T12:30:42;0.70;;;0.60;;
4794;SDS011;2411;47.060;15.064;2024-03-29T12:33:12;0.83;;;0.60;;
4794;SDS011;2411;47.060;15.064;2024-03-29T12:35:45;0.60;;;0.60;;
4794;SDS011;2411;47.060;15.064;2024-03-29T12:38:15;0.60;;;0.60;;
4794;SDS011;2411;47.060;15.064;2024-03-29T12:40:44;0.70;;;0.70;;
4794;SDS011;2411;47.060;15.064;2024-03-29T12:43:13;0.73;;;0.70;;
4794;SDS011;2411;47.060;15.064;2024-03-29T12:45:49;0.93;;;0.70;;
4794;SDS011;2411;47.060;15.064;2024-03-29T12:48:17;1.03;;;0.70;;
4794;SDS011;2411;47.060;15.064;2024-03-29T12:50:48;0.90;;;0.77;;
4794;SDS011;2411;47.060;15.064;2024-03-29T12:53:15;2.60;;;2.27;;
4794;SDS011;2411;47.060;15.064;2024-03-29T12:55:42;0.60;;;0.50;;
4794;SDS011;2411;47.060;15.064;2024-03-29T12:58:16;0.57;;;0.57;;
4794;SDS011;2411;47.060;15.064;2024-03-29T13:00:45;0.50;;;0.50;;
4794;SDS011;2411;47.060;15.064;2024-03-29T13:03:11;0.90;;;0.60;;
4794;SDS011;2411;47.060;15.064;2024-03-29T13:05:39;3.07;;;0.70;;
4794;SDS011;2411;47.060;15.064;2024-03-29T13:08:12;2.10;;;0.57;;
4794;SDS011;2411;47.060;15.064;2024-03-29T13:10:42;0.57;;;0.57;;
4794;SDS011;2411;47.060;15.064;2024-03-29T13:13:09;1.73;;;0.70;;
4794;SDS011;2411;47.060;15.064;2024-03-29T13:15:36;1.33;;;0.50;;
4794;SDS011;2411;47.060;15.064;2024-03-29T13:18:04;1.73;;;0.70;;
4794;SDS011;2411;47.060;15.064;2024-03-29T13:20:32;0.90;;;0.40;;
4794;SDS011;2411;47.060;15.064;2024-03-29T13:23:06;0.83;;;0.60;;
4794;SDS011;2411;47.060;15.064;2024-03-29T13:25:32;1.47;;;0.83;;
4794;SDS011;2411;47.060;15.064;2024-03-29T13:27:58;4.10;;;0.70;;
4794;SDS011;2411;47.060;15.064;2024-03-29T13:30:25;0.63;;;0.63;;
4794;SDS011;2411;47.060;15.064;2024-03-29T13:32:52;0.93;;;0.70;;
4794;SDS011;2411;47.060;15.064;2024-03-29T13:35:19;2.20;;;0.70;;
4794;SDS011;2411;47.060;15.064;2024-03-29T13:37:49;0.73;;;0.70;;
4794;SDS011;2411;47.060;15.064;2024-03-29T13:40:21;3.10;;;0.90;;
4794;SDS011;2411;47.060;15.064;2024-03-29T13:42:48;1.27;;;0.60;;
4794;SDS011;2411;47.060;15.064;2024-03-29T13:45:17;4.07;;;0.90;;
4794;SDS011;2411;47.060;15.064;2024-03-29T13:47:44;1.10;;;0.80;;
4794;SDS011;2411;47.060;15.064;2024-03-29T13:50:12;1.87;;;0.90;;
4794;SDS011;2411;47.060;15.064;2024-03-29T13:52:42;2.20;;;1.00;;
4794;SDS011;2411;47.060;15.064;2024-03-29T13:55:09;0.93;;;0.87;;
4794;SDS011;2411;47.060;15.064;2024-03-29T13:57:36;2.40;;;0.97;;
4794;SDS011;2411;47.060;15.064;2024-03-29T14:00:03;0.70;;;0.70;;
4794;SDS011;2411;47.060;15.064;2024-03-29T14:02:31;1.07;;;0.77;;
4794;SDS011;2411;47.060;15.064;2024-03-29T14:04:57;1.53;;;0.80;;
4794;SDS011;2411;47.060;15.064;2024-03-29T14:07:24;1.17;;;0.70;;
4794;SDS011;2411;47.060;15.064;2024-03-29T14:09:50;0.90;;;0.57;;
4794;SDS011;2411;47.060;15.064;2024-03-29T14:12:17;2.70;;;0.80;;
4794;SDS011;2411;47.060;15.064;2024-03-29T14:14:46;0.87;;;0.70;;
4794;SDS011;2411;47.060;15.064;2024-03-29T14:17:16;0.60;;;0.60;;
4794;SDS011;2411;47.060;15.064;2024-03-29T14:19:42;2.27;;;0.80;;
4794;SDS011;2411;47.060;15.064;2024-03-29T14:22:09;0.87;;;0.63;;
4794;SDS011;2411;47.060;15.064;2024-03-29T14:24:37;1.20;;;0.63;;
4794;SDS011;2411;47.060;15.064;2024-03-29T14:27:05;0.87;;;0.83;;
4794;SDS011;2411;47.060;15.064;2024-03-29T14:29:32;1.70;;;1.27;;
4794;SDS011;2411;47.060;15.064;2024-03-29T14:31:59;4.27;;;1.70;;
4794;SDS011;2411;47.060;15.064;2024-03-29T14:34:26;1.90;;;1.60;;
4794;SDS011;2411;47.060;15.064;2024-03-29T14:36:53;2.00;;;1.70;;
4794;SDS011;2411;47.060;15.064;2024-03-29T14:39:19;5.00;;;1.90;;
4794;SDS011;2411;47.060;15.064;2024-03-29T14:41:49;3.07;;;1.00;;
4794;SDS011;2411;47.060;15.064;2024-03-29T14:44:17;2.47;;;1.00;;
4794;SDS011;2411;47.060;15.064;2024-03-29T14:46:46;2.10;;;0.90;;
4794;SDS011;2411;47.060;15.064;2024-03-29T14:49:12;0.87;;;0.87;;
4794;SDS011;2411;47.060;15.064;2024-03-29T14:51:39;1.10;;;0.80;;
4794;SDS011;2411;47.060;15.064;2024-03-29T14:54:06;1.70;;;0.90;;
4794;SDS011;2411;47.060;15.064;2024-03-29T14:56:32;1.60;;;0.60;;
4794;SDS011;2411;47.060;15.064;2024-03-29T14:59:00;0.93;;;0.70;;
4794;SDS011;2411;47.060;15.064;2024-03-29T15:01:32;0.90;;;0.70;;
4794;SDS011;2411;47.060;15.064;2024-03-29T15:03:58;1.60;;;0.97;;
4794;SDS011;2411;47.060;15.064;2024-03-29T15:06:24;2.10;;;0.80;;
4794;SDS011;2411;47.060;15.064;2024-03-29T15:08:54;0.97;;;0.60;;